Tulsa, Oklahoma
Current Conditions -  °F | °C
As of 3:53 AM on Thursday 29 Jan 2015 (Local Time) from KTUL Reporting Station
Broken Clouds Broken Clouds  
Wind Chill: 13°   Ceiling: 25000
Heat Index: 13°   Visibility: 10mi
Dew Point:   Wind: 10mph
Humidity: 45%   Direction: 330°NNW
Pressure: 30.07"   Gusts: NA
Location:  36.15°N, 95.99°W
Report Text: KTUL 290953Z 33009KT 10SM BKN250 13/01 A3007 RMK AO2 SLP176 T01280011
Loading
Personal Weather Stations






























Interactive Weather Map New forecast layout! Learn more

10-Day Weather Forecast

Advertisements
Track Severe Weather on mobile